Time;durP1;ratioP1;P1;durP2;ratioP2;P2;SDS_P1;SDS_P2;PMS_P1;PMS_P2;Temp;Humidity;BMP_temperature;BMP_pressure;BME280_temperature;BME280_humidity;BME280_pressure;Samples;Min_cycle;Max_cycle;Signal;HPM_P1;HPM_P2
2021/04/28 00:00:42;;;;;;;10.60;8.50;;;3.90;1.40;;;5.20;80.87;94310.49;640271;221;24577;-72
2021/04/28 00:03:11;;;;;;;9.13;8.23;;;4.00;1.40;;;5.00;82.07;94308.50;639856;221;24955;-71
2021/04/28 00:05:40;;;;;;;11.60;9.23;;;3.80;1.40;;;4.86;83.28;94303.70;640738;220;24529;-71
2021/04/28 00:08:09;;;;;;;9.80;8.80;;;3.70;1.40;;;4.92;82.11;94300.63;638017;221;31989;-71
2021/04/28 00:10:40;;;;;;;9.90;7.90;;;3.60;1.40;;;4.86;83.38;94298.06;640129;221;25835;-71
2021/04/28 00:13:07;;;;;;;9.10;8.30;;;3.60;1.40;;;4.74;83.45;94291.50;638924;221;24513;-72
2021/04/28 00:15:36;;;;;;;9.90;8.87;;;3.50;1.40;;;4.55;84.97;94292.83;641391;221;24520;-72
2021/04/28 00:18:06;;;;;;;11.70;10.45;;;3.60;1.40;;;4.47;85.56;94292.70;623692;224;32778;-71
2021/04/28 00:20:38;;;;;;;11.55;10.45;;;3.60;1.40;;;4.51;85.28;94294.77;649917;216;31949;-71
2021/04/28 00:25:40;;;;;;;10.73;9.80;;;3.40;1.40;;;4.62;82.77;94291.69;646454;216;31650;-69
2021/04/28 00:28:09;;;;;;;10.30;9.40;;;3.30;1.40;;;4.57;83.12;94293.16;635848;220;31807;-69
2021/04/28 00:30:38;;;;;;;11.57;10.57;;;3.20;1.40;;;4.59;83.81;94289.44;635454;220;31733;-70
2021/04/28 00:35:51;;;;;;;11.45;10.32;;;3.20;1.40;;;4.31;85.64;94285.69;647148;216;32129;-71
2021/04/28 00:38:20;;;;;;;10.47;9.67;;;3.10;1.40;;;4.39;84.57;94285.66;641578;221;23458;-70
2021/04/28 00:40:49;;;;;;;11.30;10.20;;;3.10;1.40;;;4.35;84.56;94284.98;654166;215;24521;-71
2021/04/28 00:43:18;;;;;;;11.12;10.02;;;3.00;1.40;;;4.22;84.08;94289.95;663016;211;31445;-70
2021/04/28 00:45:47;;;;;;;11.00;10.00;;;3.00;1.40;;;4.08;86.82;94289.94;669736;211;23651;-70
2021/04/28 00:48:16;;;;;;;9.53;8.70;;;2.90;1.40;;;4.09;86.70;94285.11;670018;211;24427;-70
2021/04/28 00:50:45;;;;;;;8.67;7.87;;;2.90;1.40;;;4.10;88.31;94285.95;655099;216;24604;-71
2021/04/28 00:53:15;;;;;;;11.18;10.10;;;2.90;1.40;;;4.07;87.30;94281.42;663831;211;31504;-70
2021/04/28 00:58:21;;;;;;;11.68;10.48;;;2.90;1.40;;;3.99;87.20;94279.40;646061;216;32133;-70
2021/04/28 01:00:50;;;;;;;12.40;11.10;;;2.70;1.40;;;4.03;84.33;94278.76;635329;221;31802;-69
2021/04/28 01:03:21;;;;;;;12.30;11.07;;;2.70;1.40;;;3.91;87.74;94277.70;655135;216;23450;-69
2021/04/28 01:05:50;;;;;;;11.97;10.87;;;2.80;1.40;;;3.71;87.69;94276.98;669110;211;24461;-69
2021/04/28 01:08:19;;;;;;;13.33;9.10;;;2.50;1.40;;;3.53;86.54;94276.30;669233;211;24865;-70
2021/04/28 01:10:48;;;;;;;10.02;9.10;;;2.30;1.40;;;3.51;85.49;94279.13;662377;211;31469;-70
2021/04/28 01:13:17;;;;;;;9.83;8.93;;;2.20;1.40;;;3.45;85.77;94270.09;667400;211;23411;-70
2021/04/28 01:15:46;;;;;;;9.90;9.00;;;2.20;1.40;;;3.31;86.42;94269.13;669167;211;24686;-70
2021/04/28 01:18:15;;;;;;;9.90;9.00;;;2.10;1.40;;;3.26;89.30;94273.05;655985;215;24441;-70
2021/04/28 01:20:45;;;;;;;10.53;9.43;;;2.10;1.40;;;3.34;90.23;94271.66;655257;215;24448;-69
2021/04/28 01:23:14;;;;;;;11.50;10.23;;;2.20;1.40;;;3.26;90.71;94276.59;655884;215;24518;-70
2021/04/28 01:25:43;;;;;;;11.35;10.25;;;2.20;1.40;;;3.30;90.45;94270.74;649813;215;42250;-70
2021/04/28 01:28:21;;;;;;;11.57;10.43;;;2.20;1.40;;;3.28;90.25;94271.14;655070;215;25006;-71
2021/04/28 01:30:54;;;;;;;11.40;10.20;;;2.20;1.40;;;3.40;92.18;94276.75;655310;215;24449;-70
2021/04/28 01:35:50;;;;;;;12.68;11.38;;;2.60;1.40;;;3.46;92.54;94280.31;646219;212;31629;-71
2021/04/28 01:38:19;;;;;;;11.73;10.60;;;2.50;1.40;;;3.37;92.65;94274.38;641355;220;23952;-72
2021/04/28 01:40:48;;;;;;;16.23;10.77;;;2.40;1.40;;;3.32;93.89;94275.32;640748;221;24538;-69
2021/04/28 01:43:18;;;;;;;10.80;9.70;;;2.40;1.40;;;3.32;93.73;94278.70;639807;220;24590;-70
2021/04/28 01:48:23;;;;;;;12.30;11.10;;;2.30;1.40;;;3.32;93.36;94273.72;646803;212;31631;-70
2021/04/28 01:50:52;;;;;;;11.60;10.50;;;2.40;1.40;;;3.30;92.45;94272.94;641667;221;23751;-70
2021/04/28 01:53:21;;;;;;;12.10;10.90;;;2.30;1.40;;;3.39;91.79;94276.23;641353;221;24872;-70
2021/04/28 01:55:51;;;;;;;11.90;10.80;;;2.40;1.40;;;3.29;92.46;94279.38;641448;220;24522;-70
2021/04/28 01:58:20;;;;;;;13.27;12.07;;;2.30;1.40;;;3.29;91.54;94275.52;634878;220;31803;-71
2021/04/28 02:00:49;;;;;;;13.30;10.80;;;2.30;1.40;;;3.24;93.49;94273.30;640971;221;23489;-70
2021/04/28 02:03:22;;;;;;;12.77;11.48;;;2.30;1.40;;;3.19;93.02;94272.72;634312;221;32178;-71
2021/04/28 02:05:51;;;;;;;11.50;10.50;;;2.20;1.40;;;3.17;92.93;94277.61;642106;220;26603;-70
2021/04/28 02:08:20;;;;;;;11.33;10.13;;;2.30;1.40;;;3.19;94.20;94273.89;640516;221;25606;-70
2021/04/28 02:10:49;;;;;;;13.15;11.95;;;2.20;1.40;;;3.16;92.08;94268.13;634833;221;31831;-70
2021/04/28 02:13:18;;;;;;;11.47;10.47;;;2.10;1.40;;;3.08;92.34;94263.34;649219;219;25643;-70
2021/04/28 02:15:47;;;;;;;11.80;10.70;;;1.90;1.40;;;3.01;93.35;94260.81;641237;220;24528;-70
2021/04/28 02:18:17;;;;;;;11.47;10.33;;;1.90;1.40;;;2.96;93.68;94262.66;669866;211;29776;-70
2021/04/28 02:20:46;;;;;;;9.10;8.30;;;1.90;1.40;;;2.77;89.07;94269.13;668843;211;24437;-70
2021/04/28 02:23:15;;;;;;;9.07;8.20;;;1.40;1.40;;;2.49;89.93;94268.59;669302;211;24413;-70
2021/04/28 02:25:44;;;;;;;10.47;9.40;;;1.10;1.40;;;2.37;91.01;94269.22;668235;211;24427;-70
2021/04/28 02:28:13;;;;;;;10.70;9.70;;;1.10;1.40;;;2.26;90.90;94267.71;652417;216;24493;-71
2021/04/28 02:30:42;;;;;;;10.13;8.73;;;1.10;1.40;;;2.13;91.00;94258.45;654613;216;24469;-71
2021/04/28 02:35:56;;;;;;;11.25;10.30;;;1.00;1.40;;;2.06;93.47;94259.09;645916;216;42253;-70
2021/04/28 02:38:29;;;;;;;10.93;9.83;;;1.10;1.40;;;2.14;94.04;94259.52;640643;220;23547;-70
2021/04/28 02:40:58;;;;;;;10.53;9.47;;;1.10;1.40;;;2.40;93.67;94266.77;641466;220;24701;-69
2021/04/28 02:43:27;;;;;;;11.50;10.40;;;1.40;1.40;;;2.32;94.18;94260.07;640242;220;24537;-70
2021/04/28 02:45:56;;;;;;;12.10;11.00;;;1.30;1.40;;;2.35;93.08;94257.95;635326;220;31762;-69
2021/04/28 02:48:25;;;;;;;12.73;11.53;;;1.20;1.40;;;2.39;93.02;94253.78;640001;221;23489;-70
2021/04/28 02:50:54;;;;;;;11.80;10.60;;;1.20;1.40;;;2.34;93.47;94250.27;640312;221;24522;-70
2021/04/28 02:53:23;;;;;;;12.60;11.30;;;1.20;1.40;;;2.21;94.80;94247.73;641036;220;24532;-70
2021/04/28 02:55:56;;;;;;;13.18;12.07;;;1.20;1.40;;;2.40;94.68;94245.66;634011;220;31859;-70
2021/04/28 02:58:25;;;;;;;12.13;11.03;;;1.30;1.40;;;2.29;95.02;94249.24;640457;220;23488;-70
2021/04/28 03:00:54;;;;;;;11.73;10.63;;;1.30;1.40;;;2.20;96.92;94246.30;638676;221;24520;-69
2021/04/28 03:03:23;;;;;;;12.13;10.93;;;1.20;1.40;;;2.40;94.43;94248.38;639059;221;24553;-69
2021/04/28 03:05:52;;;;;;;12.93;11.70;;;1.30;1.40;;;2.41;91.88;94247.30;640745;220;31792;-69
2021/04/28 03:08:21;;;;;;;14.35;12.85;;;1.10;1.40;;;2.35;92.85;94241.74;662255;211;31483;-69
2021/04/28 03:10:50;;;;;;;13.20;11.83;;;1.10;1.40;;;2.33;94.38;94246.09;655872;216;23723;-71
2021/04/28 03:13:19;;;;;;;12.53;11.47;;;1.10;1.40;;;2.24;95.97;94244.95;668689;211;24467;-70
2021/04/28 03:15:49;;;;;;;11.50;10.30;;;1.10;1.40;;;2.13;98.06;94242.47;648891;218;24909;-70
2021/04/28 03:18:17;;;;;;;10.93;10.03;;;1.10;1.40;;;2.04;97.91;94240.81;640386;223;25636;-70
2021/04/28 03:20:47;;;;;;;10.60;9.53;;;1.00;1.40;;;2.01;98.56;94241.58;655502;216;24502;-70
2021/04/28 03:23:15;;;;;;;12.17;10.93;;;1.00;1.40;;;2.03;99.17;94242.85;656554;216;24966;-69
2021/04/28 03:25:45;;;;;;;15.43;11.10;;;1.00;1.40;;;2.18;96.40;94237.13;654514;215;24453;-70
2021/04/28 03:28:14;;;;;;;12.80;11.60;;;1.00;1.40;;;2.13;95.95;94240.64;657247;216;24529;-70
2021/04/28 03:30:43;;;;;;;12.13;10.67;;;1.00;1.40;;;2.08;97.84;94243.20;654580;216;24456;-70
2021/04/28 03:35:51;;;;;;;14.95;13.65;;;1.10;1.40;;;2.12;98.32;94245.68;646585;216;31642;-71
2021/04/28 03:38:20;;;;;;;13.53;12.13;;;1.10;1.40;;;2.12;98.37;94246.64;641929;221;23526;-71
2021/04/28 03:40:49;;;;;;;13.40;11.47;;;1.00;1.40;;;2.11;98.34;94251.67;655593;215;24484;-71
2021/04/28 03:43:19;;;;;;;14.50;13.07;;;1.10;1.40;;;2.12;96.36;94253.64;664235;211;31452;-71
2021/04/28 03:45:48;;;;;;;14.10;12.70;;;0.90;1.40;;;1.96;96.71;94256.11;669342;211;23407;-71
2021/04/28 03:48:17;;;;;;;13.77;12.10;;;0.90;1.40;;;1.86;98.07;94255.34;669464;211;24521;-71
2021/04/28 03:50:46;;;;;;;11.83;10.27;;;0.70;1.40;;;1.76;97.61;94252.07;655069;216;24448;-71
2021/04/28 03:53:15;;;;;;;13.15;11.95;;;0.60;1.40;;;1.65;96.10;94256.78;663163;211;31419;-71
2021/04/28 03:55:44;;;;;;;13.53;11.83;;;0.50;1.40;;;1.59;97.72;94253.03;669771;211;23608;-71
2021/04/28 03:58:13;;;;;;;12.77;11.47;;;0.50;1.40;;;1.52;98.27;94255.53;668840;211;25562;-71
2021/04/28 04:00:42;;;;;;;14.13;11.97;;;0.50;1.40;;;1.59;100.00;94252.06;669495;211;24495;-71
2021/04/28 04:03:11;;;;;;;13.20;11.40;;;0.60;1.40;;;1.63;100.00;94250.17;668386;211;24463;-71
2021/04/28 04:05:40;;;;;;;16.95;14.43;;;0.70;1.40;;;1.72;100.00;94253.17;661341;211;31675;-71
2021/04/28 04:08:09;;;;;;;17.50;13.10;;;0.90;1.40;;;1.80;100.00;94249.59;654173;216;23469;-71
2021/04/28 04:10:38;;;;;;;14.93;12.63;;;1.00;1.40;;;1.70;100.00;94250.52;654664;216;24919;-71
2021/04/28 04:13:07;;;;;;;13.57;11.63;;;0.90;1.40;;;1.68;100.00;94251.66;668699;211;24449;-72
2021/04/28 04:15:37;;;;;;;19.13;14.30;;;1.00;1.40;;;1.78;100.00;94250.94;669361;211;24428;-71
2021/04/28 04:18:06;;;;;;;14.30;12.90;;;0.90;1.40;;;1.90;100.00;94254.19;653730;216;27889;-70
2021/04/28 04:20:35;;;;;;;14.17;12.80;;;1.00;1.40;;;1.93;100.00;94251.86;654772;216;24515;-71
2021/04/28 04:23:05;;;;;;;14.80;13.37;;;0.90;1.40;;;2.08;100.00;94254.00;655045;215;24488;-71
2021/04/28 04:25:34;;;;;;;13.20;12.10;;;1.10;1.40;;;2.16;100.00;94259.17;654322;215;24471;-70
2021/04/28 04:28:03;;;;;;;13.00;11.70;;;1.20;1.40;;;2.12;100.00;94260.54;654763;215;24844;-71
2021/04/28 04:30:32;;;;;;;17.70;12.90;;;1.20;1.40;;;2.30;100.00;94262.01;641570;220;24578;-71
2021/04/28 04:33:01;;;;;;;17.67;12.57;;;1.30;1.40;;;2.34;100.00;94259.98;640829;220;28915;-71
2021/04/28 04:35:51;;;;;;;16.02;14.43;;;1.40;1.40;;;2.45;100.00;94261.84;644461;212;31651;-70
2021/04/28 04:38:20;;;;;;;17.00;15.40;;;1.50;1.40;;;2.57;100.00;94265.40;639945;220;27739;-71
2021/04/28 04:40:49;;;;;;;14.90;13.40;;;1.50;1.40;;;2.70;100.00;94260.47;640816;221;24547;-71
2021/04/28 04:43:18;;;;;;;16.95;15.25;;;1.70;1.40;;;2.76;99.63;94267.20;634673;220;31813;-71
2021/04/28 04:45:47;;;;;;;16.17;14.57;;;1.80;1.40;;;2.77;100.00;94265.27;640676;220;24089;-71
2021/04/28 04:48:16;;;;;;;15.37;13.97;;;1.80;1.40;;;2.88;98.91;94262.17;640878;221;24512;-71
2021/04/28 04:50:45;;;;;;;14.63;13.23;;;1.80;1.40;;;3.10;95.37;94258.45;639532;221;24537;-72
2021/04/28 04:53:14;;;;;;;14.50;12.80;;;1.90;1.40;;;3.18;95.72;94261.58;640727;221;24508;-71
2021/04/28 04:55:43;;;;;;;16.35;14.75;;;2.00;1.40;;;3.30;95.36;94261.48;635041;221;31868;-72
2021/04/28 04:58:12;;;;;;;17.03;13.70;;;2.00;1.40;;;3.40;95.70;94263.68;641006;220;24336;-71
2021/04/28 05:00:41;;;;;;;16.70;15.07;;;2.10;1.40;;;3.58;94.55;94265.38;634614;220;31805;-73
2021/04/28 05:03:10;;;;;;;17.17;15.40;;;2.30;1.40;;;3.83;92.08;94269.55;636018;221;31997;-71
2021/04/28 05:05:39;;;;;;;16.03;14.40;;;2.50;1.40;;;3.95;93.79;94268.31;639587;220;23474;-71
2021/04/28 05:08:09;;;;;;;16.98;15.40;;;2.60;1.40;;;4.14;93.39;94265.62;634670;220;31795;-72
2021/04/28 05:10:38;;;;;;;15.87;14.13;;;2.80;1.40;;;4.28;94.74;94263.86;640616;221;26808;-72
2021/04/28 05:13:07;;;;;;;14.50;13.13;;;3.00;1.40;;;4.54;93.41;94267.20;639838;221;24518;-71
2021/04/28 05:15:36;;;;;;;17.15;15.45;;;3.30;1.40;;;4.69;92.84;94264.16;634119;220;32191;-72
2021/04/28 05:18:05;;;;;;;18.15;16.35;;;3.40;1.40;;;4.91;91.51;94267.36;622296;225;32048;-71
2021/04/28 05:20:34;;;;;;;17.50;15.73;;;3.60;1.40;;;5.23;88.53;94260.50;639006;220;23462;-73
2021/04/28 05:23:03;;;;;;;16.92;15.23;;;3.90;1.40;;;5.39;87.78;94262.84;634752;223;31803;-72
2021/04/28 05:25:32;;;;;;;15.40;14.00;;;3.90;1.40;;;5.48;88.78;94259.94;654428;215;23461;-71
2021/04/28 05:28:01;;;;;;;14.83;13.53;;;4.10;1.40;;;5.66;86.93;94256.61;629337;225;25799;-69
2021/04/28 05:30:30;;;;;;;13.70;12.23;;;4.20;1.40;;;5.91;84.84;94257.70;654779;215;24477;-71
2021/04/28 05:32:59;;;;;;;14.27;12.87;;;4.40;1.40;;;6.06;84.53;94261.84;656020;215;27763;-71
2021/04/28 05:35:51;;;;;;;16.20;14.60;;;4.60;1.40;;;6.25;83.54;94257.60;646647;213;32208;-70
2021/04/28 05:38:20;;;;;;;15.33;13.93;;;4.70;1.40;;;6.37;82.77;94254.70;640305;220;23501;-70
2021/04/28 05:40:49;;;;;;;15.33;13.53;;;4.80;1.40;;;6.38;84.03;94256.55;639510;221;26732;-70
2021/04/28 05:43:18;;;;;;;15.20;13.60;;;4.80;1.40;;;6.48;83.73;94257.86;641611;221;24518;-71
2021/04/28 05:45:48;;;;;;;15.63;14.23;;;5.00;1.40;;;6.70;83.02;94252.83;639344;220;24517;-70
2021/04/28 05:48:17;;;;;;;16.47;14.80;;;5.10;1.40;;;6.82;82.97;94257.72;641181;221;28911;-71
2021/04/28 05:50:46;;;;;;;15.37;13.80;;;5.20;1.40;;;6.87;83.57;94258.02;640280;220;24582;-71
2021/04/28 05:55:49;;;;;;;17.27;15.48;;;5.40;1.40;;;7.20;81.84;94251.99;645896;216;31644;-71
2021/04/28 05:58:18;;;;;;;14.90;13.70;;;5.70;1.40;;;7.40;81.58;94253.59;641408;221;23534;-71
2021/04/28 06:00:47;;;;;;;17.23;15.53;;;5.80;1.40;;;7.21;83.72;94254.11;639621;221;24515;-71
2021/04/28 06:03:16;;;;;;;15.40;14.10;;;5.80;1.40;;;7.19;85.21;94257.67;641649;220;24524;-69
2021/04/28 06:05:45;;;;;;;15.43;14.03;;;5.70;1.40;;;7.54;82.61;94256.58;640035;220;24521;-68
2021/04/28 06:08:14;;;;;;;17.27;15.47;;;5.90;1.40;;;7.56;82.79;94252.55;640048;220;24490;-70
2021/04/28 06:10:43;;;;;;;17.75;16.00;;;6.00;1.40;;;7.81;81.41;94255.20;635687;220;31909;-70
2021/04/28 06:13:12;;;;;;;17.50;15.85;;;6.10;1.40;;;7.87;81.06;94255.09;634831;220;31834;-74
2021/04/28 06:15:42;;;;;;;18.80;16.90;;;6.30;1.40;;;7.94;80.98;94252.81;633678;220;31953;-70
2021/04/28 06:18:11;;;;;;;15.80;14.50;;;6.30;1.40;;;8.16;80.10;94252.09;641513;220;23772;-70
2021/04/28 06:20:40;;;;;;;16.93;14.43;;;6.40;1.40;;;8.25;79.32;94256.92;655199;215;24462;-71
2021/04/28 06:23:09;;;;;;;17.97;16.10;;;6.50;1.40;;;8.47;78.35;94258.98;657093;215;30186;-70
2021/04/28 06:25:39;;;;;;;16.17;14.53;;;6.70;1.40;;;8.41;78.73;94256.11;653946;215;24485;-71
2021/04/28 06:30:41;;;;;;;16.12;14.52;;;7.00;1.40;;;9.18;76.54;94256.73;647192;212;31627;-70
2021/04/28 06:35:51;;;;;;;16.83;14.93;;;7.40;1.40;;;9.52;75.63;94253.70;647700;212;31661;-70
2021/04/28 06:38:20;;;;;;;16.70;15.13;;;7.60;1.40;;;9.77;74.14;94250.95;640877;221;23476;-70
2021/04/28 06:40:49;;;;;;;16.55;15.15;;;7.90;1.40;;;10.04;73.90;94252.83;633346;220;31988;-70
2021/04/28 06:43:18;;;;;;;18.03;15.93;;;8.00;1.40;;;10.35;73.29;94253.78;640024;220;23454;-70
2021/04/28 06:45:48;;;;;;;16.53;14.83;;;8.20;1.40;;;10.56;72.21;94253.95;638630;221;24524;-70
2021/04/28 06:48:17;;;;;;;15.63;14.07;;;8.50;1.40;;;10.91;71.77;94251.41;654705;216;24461;-70
2021/04/28 06:50:46;;;;;;;16.63;15.07;;;8.90;1.40;;;10.97;71.05;94253.41;655501;216;24642;-70
2021/04/28 06:53:15;;;;;;;23.50;16.57;;;9.00;1.40;;;11.09;70.58;94253.48;668565;211;24431;-69
2021/04/28 06:55:44;;;;;;;17.47;15.87;;;9.00;1.40;;;11.40;70.09;94250.91;653124;216;33514;-70
2021/04/28 06:58:13;;;;;;;19.13;14.33;;;9.10;1.40;;;11.63;69.15;94252.64;640255;220;24510;-70
2021/04/28 07:00:42;;;;;;;20.48;15.65;;;9.30;1.40;;;12.05;68.52;94250.75;661971;211;31494;-71
2021/04/28 07:03:11;;;;;;;18.30;16.40;;;9.60;1.40;;;12.17;67.37;94249.79;650414;219;23413;-70
2021/04/28 07:05:40;;;;;;;18.33;14.67;;;9.90;1.40;;;12.24;66.62;94254.69;667711;211;29884;-71
2021/04/28 07:08:09;;;;;;;14.87;13.40;;;10.10;1.40;;;12.36;66.90;94258.98;668508;211;25277;-70
2021/04/28 07:10:38;;;;;;;15.93;14.23;;;10.10;1.40;;;12.33;66.00;94255.98;668042;211;24429;-71
2021/04/28 07:13:07;;;;;;;19.27;16.53;;;10.00;1.40;;;12.13;66.38;94259.84;667571;211;24515;-70
2021/04/28 07:15:38;;;;;;;18.20;13.60;;;10.00;1.40;;;12.33;66.41;94262.71;653827;216;24520;-71
2021/04/28 07:18:06;;;;;;;21.77;13.47;;;10.20;1.40;;;12.69;65.66;94259.77;640748;220;25065;-69
2021/04/28 07:20:35;;;;;;;16.27;14.57;;;10.50;1.40;;;12.93;64.70;94265.38;654050;216;24502;-71
2021/04/28 07:23:04;;;;;;;17.93;13.83;;;10.70;1.40;;;13.35;64.62;94261.58;656263;216;24471;-70
2021/04/28 07:25:33;;;;;;;16.87;14.23;;;11.00;1.40;;;13.39;63.04;94257.45;655687;216;27777;-71
2021/04/28 07:28:03;;;;;;;18.63;14.60;;;11.20;1.40;;;13.62;63.02;94257.66;654347;216;24491;-71
2021/04/28 07:30:32;;;;;;;18.13;13.33;;;11.40;1.40;;;13.01;63.64;94259.45;655766;216;25673;-71
2021/04/28 07:33:01;;;;;;;15.83;14.13;;;11.00;1.40;;;13.36;63.13;94257.91;657127;216;24491;-70
2021/04/28 07:35:52;;;;;;;18.27;14.52;;;11.20;1.40;;;13.86;62.38;94259.45;635698;220;32016;-70
2021/04/28 07:38:21;;;;;;;15.60;14.10;;;11.60;1.40;;;13.56;62.90;94264.13;625570;225;23915;-70
2021/04/28 07:40:50;;;;;;;16.80;14.30;;;11.70;1.40;;;13.74;62.02;94266.90;627884;225;28814;-70
2021/04/28 07:43:19;;;;;;;16.33;14.80;;;11.90;1.40;;;14.01;61.67;94269.16;637887;220;27730;-70
2021/04/28 07:45:48;;;;;;;16.73;14.43;;;11.90;1.40;;;13.84;61.51;94269.99;628166;224;25672;-70
2021/04/28 07:48:17;;;;;;;17.10;14.37;;;11.90;1.40;;;14.36;62.19;94267.36;638713;220;29954;-70
2021/04/28 07:53:24;;;;;;;16.60;14.83;;;12.30;1.40;;;14.72;60.11;94260.76;646590;212;31680;-70
2021/04/28 07:55:53;;;;;;;18.90;15.37;;;12.40;1.40;;;14.46;59.45;94260.62;637002;221;31803;-70
2021/04/28 07:58:22;;;;;;;20.53;15.40;;;12.20;1.40;;;14.25;62.34;94265.84;639603;221;25672;-70
2021/04/28 08:00:51;;;;;;;17.53;15.77;;;12.30;1.40;;;14.72;61.18;94264.11;640704;220;28842;-70
2021/04/28 08:03:20;;;;;;;18.63;16.70;;;12.70;1.40;;;14.57;61.38;94263.52;641517;220;24541;-70
2021/04/28 08:05:49;;;;;;;19.83;17.10;;;12.80;1.40;;;14.69;58.12;94265.08;657987;211;28687;-70
2021/04/28 08:08:18;;;;;;;15.87;14.27;;;13.20;1.40;;;14.79;59.60;94264.66;669658;211;24421;-71
2021/04/28 08:10:47;;;;;;;19.33;15.50;;;13.30;1.40;;;15.29;59.56;94267.70;670656;211;24622;-71
2021/04/28 08:13:16;;;;;;;18.10;16.50;;;13.50;1.40;;;15.65;59.46;94262.97;653716;216;25467;-71
2021/04/28 08:15:47;;;;;;;19.77;17.33;;;13.80;1.40;;;15.70;57.88;94255.55;653566;216;24488;-71
2021/04/28 08:18:14;;;;;;;18.27;16.33;;;14.00;1.40;;;15.98;57.30;94257.53;655292;215;24490;-71
2021/04/28 08:20:45;;;;;;;19.10;17.20;;;14.00;1.40;;;15.79;57.03;94259.75;642705;221;24499;-71
2021/04/28 08:23:13;;;;;;;18.90;17.00;;;13.70;1.40;;;15.93;57.70;94257.13;631779;223;31844;-71
2021/04/28 08:25:42;;;;;;;19.47;17.47;;;13.80;1.40;;;15.88;58.51;94258.23;629588;225;24591;-71
2021/04/28 08:28:11;;;;;;;17.97;16.10;;;14.20;1.40;;;15.73;57.94;94253.56;641693;221;26122;-71
2021/04/28 08:30:42;;;;;;;17.73;15.23;;;14.50;1.40;;;16.05;58.27;94255.29;644200;218;24487;-71
2021/04/28 08:35:51;;;;;;;17.83;15.93;;;14.70;1.40;;;16.59;56.64;94254.43;646491;216;42280;-69
2021/04/28 08:38:21;;;;;;;18.33;16.73;;;15.20;1.40;;;17.38;54.44;94250.76;640778;220;22513;-70
2021/04/28 08:46:01;;;;;;;17.27;15.20;;;15.90;1.40;;;18.04;49.20;94254.59;645639;212;34136;-70
2021/04/28 08:48:30;;;;;;;17.55;15.65;;;16.20;1.40;;;17.94;50.53;94255.09;632631;221;31888;-69
2021/04/28 08:50:59;;;;;;;18.55;15.90;;;16.30;1.40;;;18.13;50.33;94253.91;649643;215;31662;-70
2021/04/28 08:53:28;;;;;;;17.93;15.80;;;16.40;1.40;;;17.77;48.61;94251.75;641280;220;28914;-70
2021/04/28 08:55:57;;;;;;;21.63;16.00;;;16.40;1.40;;;18.26;50.28;94248.68;668864;211;23492;-71
2021/04/28 08:58:26;;;;;;;17.03;15.47;;;17.00;1.40;;;18.38;50.24;94248.02;670684;211;23454;-71
2021/04/28 09:00:55;;;;;;;17.33;15.63;;;17.00;1.40;;;18.08;48.39;94245.55;663565;211;31520;-71
2021/04/28 09:03:37;;;;;;;17.70;15.80;;;16.60;1.40;;;18.29;48.00;94251.97;668437;211;28706;-70
2021/04/28 09:08:47;;;;;;;15.15;13.60;;;20.00;1.40;;;21.01;41.81;94242.38;646626;212;31747;-70
2021/04/28 09:11:33;;;;;;;17.63;14.00;;;20.70;1.40;;;22.47;41.51;94247.42;642326;220;22559;-70
2021/04/28 09:14:10;;;;;;;16.97;15.37;;;21.90;1.40;;;23.50;40.47;94240.22;641677;221;23511;-70
2021/04/28 09:16:38;;;;;;;17.10;14.67;;;22.60;1.40;;;24.60;39.27;94237.59;639871;221;24548;-71
2021/04/28 09:19:07;;;;;;;17.30;13.57;;;22.80;1.40;;;26.08;36.39;94236.59;640385;221;28073;-72
2021/04/28 09:21:51;;;;;;;15.47;14.17;;;23.60;1.40;;;26.94;37.08;94243.02;639503;221;27790;-70
2021/04/28 09:24:21;;;;;;;13.80;12.70;;;23.80;1.40;;;26.28;33.63;94243.11;640037;220;23523;-70
2021/04/28 09:26:53;;;;;;;13.57;12.27;;;24.00;1.40;;;27.56;34.01;94239.74;655088;215;23850;-71
2021/04/28 09:29:19;;;;;;;13.50;12.10;;;23.90;1.40;;;26.03;34.25;94233.11;669944;211;23440;-73
2021/04/28 09:32:01;;;;;;;18.70;13.07;;;23.20;1.40;;;27.42;34.55;94238.37;666933;211;23457;-71
2021/04/28 09:36:00;;;;;;;13.20;12.00;;;23.60;1.40;;;28.75;30.34;94221.67;646811;212;33585;-71
2021/04/28 09:38:29;;;;;;;16.13;13.13;;;24.20;1.40;;;30.03;31.47;94221.80;640590;221;23551;-71
2021/04/28 09:41:00;;;;;;;13.80;12.50;;;24.80;1.40;;;30.62;33.03;94216.39;640052;220;23550;-71
2021/04/28 09:43:36;;;;;;;13.03;11.80;;;25.00;1.40;;;30.32;32.98;94219.19;642112;219;23621;-72
2021/04/28 09:46:05;;;;;;;13.57;12.33;;;25.60;1.40;;;29.29;29.74;94214.02;640385;221;23561;-71
2021/04/28 09:48:39;;;;;;;12.57;11.37;;;24.70;1.40;;;28.67;27.97;94214.45;638261;221;23536;-71
2021/04/28 09:51:06;;;;;;;11.30;10.50;;;24.50;1.40;;;30.26;33.00;94210.52;650423;218;23598;-71
2021/04/28 09:53:35;;;;;;;11.33;10.50;;;25.40;1.40;;;32.11;28.93;94209.35;668911;211;26568;-71
2021/04/28 09:56:04;;;;;;;12.67;11.57;;;26.20;1.40;;;28.27;28.34;94211.06;668420;211;23484;-72
2021/04/28 09:58:48;;;;;;;11.90;10.67;;;24.40;1.40;;;28.80;27.21;94210.71;641744;220;23561;-71
2021/04/28 10:01:21;;;;;;;11.80;10.57;;;24.50;1.40;;;28.78;27.21;94205.42;668377;211;23577;-72
2021/04/28 10:03:50;;;;;;;12.13;11.00;;;24.70;1.40;;;29.04;29.52;94203.11;663440;211;33937;-72
2021/04/28 10:06:36;;;;;;;11.82;10.93;;;24.30;1.40;;;31.88;25.86;94198.30;662843;211;31447;-72
2021/04/28 10:09:05;;;;;;;11.50;10.33;;;25.60;1.40;;;31.32;26.65;94199.58;669833;211;25919;-72
2021/04/28 10:11:34;;;;;;;11.70;10.50;;;25.40;1.40;;;31.88;26.54;94202.00;647021;220;23533;-72
2021/04/28 10:14:04;;;;;;;11.10;10.20;;;25.50;1.40;;;30.12;25.14;94196.32;669724;211;23647;-72
2021/04/28 10:16:33;;;;;;;12.53;10.80;;;25.30;1.40;;;31.12;27.54;94197.64;648401;216;23557;-72
2021/04/28 10:19:02;;;;;;;11.10;10.20;;;26.30;1.40;;;28.46;27.37;94195.22;640649;220;23743;-72
2021/04/28 10:21:31;;;;;;;11.23;10.17;;;24.50;1.40;;;31.28;25.43;94194.36;654599;216;24518;-72
2021/04/28 10:24:00;;;;;;;11.70;10.70;;;25.50;1.40;;;30.69;27.17;94189.17;656161;216;23480;-72
2021/04/28 10:26:29;;;;;;;11.60;10.53;;;25.50;1.40;;;30.06;27.11;94185.16;640788;221;23929;-72
2021/04/28 10:28:58;;;;;;;10.37;9.50;;;25.00;1.40;;;32.06;24.62;94189.41;655800;215;23522;-72
2021/04/28 10:31:27;;;;;;;11.82;9.52;;;26.30;1.40;;;32.93;24.54;94187.42;649372;215;31651;-72
2021/04/28 10:35:56;;;;;;;11.67;10.67;;;27.40;1.40;;;33.12;23.16;94182.84;646181;212;31634;-71
2021/04/28 10:38:25;;;;;;;11.30;10.40;;;26.90;1.40;;;33.92;22.17;94186.48;643000;219;23624;-71
2021/04/28 10:40:54;;;;;;;10.43;9.70;;;27.30;1.40;;;33.01;24.11;94185.22;669913;211;23468;-72
2021/04/28 10:43:23;;;;;;;11.30;10.30;;;27.00;1.40;;;33.75;21.60;94182.58;655304;216;23502;-72
2021/04/28 10:45:52;;;;;;;11.50;10.30;;;26.50;1.40;;;33.67;22.60;94181.71;653342;216;23530;-72
2021/04/28 10:48:22;;;;;;;9.93;9.03;;;26.90;1.40;;;34.63;22.34;94179.25;666791;211;23453;-71
2021/04/28 10:50:51;;;;;;;10.23;9.53;;;28.10;1.40;;;35.09;21.99;94174.08;667388;211;28772;-73
2021/04/28 10:53:20;;;;;;;10.70;9.80;;;28.20;1.40;;;33.71;22.41;94178.17;669002;211;23658;-72
2021/04/28 10:55:56;;;;;;;11.00;10.17;;;26.90;1.40;;;34.24;22.49;94174.72;669631;211;24567;-72
2021/04/28 10:58:41;;;;;;;13.43;12.07;;;27.50;1.40;;;26.70;26.80;94183.91;668104;211;26837;-72
2021/04/28 11:01:15;;;;;;;13.00;11.70;;;23.30;1.40;;;29.79;24.88;94169.03;669795;211;26841;-72
2021/04/28 11:03:49;;;;;;;11.10;10.20;;;25.40;1.40;;;33.61;22.53;94165.84;668465;211;23442;-73
2021/04/28 11:09:07;;;;;;;17.10;12.88;;;26.00;1.40;;;30.39;22.77;94171.39;618306;222;32031;-71
2021/04/28 11:14:29;;;;;;;11.88;10.77;;;24.20;1.40;;;32.34;21.95;94168.97;615426;225;31998;-71
2021/04/28 11:17:15;;;;;;;12.73;11.63;;;25.60;1.40;;;31.61;23.48;94167.21;626127;224;22531;-72
2021/04/28 11:19:55;;;;;;;11.80;10.70;;;26.30;1.40;;;34.25;22.10;94158.71;644900;216;31647;-71